sensor_id;sensor_type;location;lat;lon;timestamp;P1;durP1;ratioP1;P2;durP2;ratioP2
3561;SDS011;1795;52.074;4.754;2022-11-20T00:00:54;14.10;;;10.80;;
3561;SDS011;1795;52.074;4.754;2022-11-20T00:03:22;14.77;;;10.80;;
3561;SDS011;1795;52.074;4.754;2022-11-20T00:05:51;14.57;;;10.70;;
3561;SDS011;1795;52.074;4.754;2022-11-20T00:08:19;15.05;;;10.95;;
3561;SDS011;1795;52.074;4.754;2022-11-20T00:10:47;15.15;;;11.07;;
3561;SDS011;1795;52.074;4.754;2022-11-20T00:13:16;14.57;;;10.73;;
3561;SDS011;1795;52.074;4.754;2022-11-20T00:15:45;14.15;;;10.30;;
3561;SDS011;1795;52.074;4.754;2022-11-20T00:18:14;12.40;;;9.85;;
3561;SDS011;1795;52.074;4.754;2022-11-20T00:20:42;13.80;;;9.70;;
3561;SDS011;1795;52.074;4.754;2022-11-20T00:23:10;13.85;;;10.23;;
3561;SDS011;1795;52.074;4.754;2022-11-20T00:25:38;13.07;;;9.93;;
3561;SDS011;1795;52.074;4.754;2022-11-20T00:28:07;13.68;;;11.20;;
3561;SDS011;1795;52.074;4.754;2022-11-20T00:30:35;14.52;;;11.32;;
3561;SDS011;1795;52.074;4.754;2022-11-20T00:33:05;13.48;;;10.57;;
3561;SDS011;1795;52.074;4.754;2022-11-20T00:35:33;15.25;;;10.43;;
3561;SDS011;1795;52.074;4.754;2022-11-20T00:38:01;14.13;;;10.68;;
3561;SDS011;1795;52.074;4.754;2022-11-20T00:40:29;12.70;;;10.10;;
3561;SDS011;1795;52.074;4.754;2022-11-20T00:42:58;15.55;;;10.63;;
3561;SDS011;1795;52.074;4.754;2022-11-20T00:45:26;15.55;;;10.95;;
3561;SDS011;1795;52.074;4.754;2022-11-20T00:47:54;13.80;;;10.63;;
3561;SDS011;1795;52.074;4.754;2022-11-20T00:50:24;14.20;;;10.50;;
3561;SDS011;1795;52.074;4.754;2022-11-20T00:52:52;12.95;;;10.32;;
3561;SDS011;1795;52.074;4.754;2022-11-20T00:55:20;13.80;;;10.80;;
3561;SDS011;1795;52.074;4.754;2022-11-20T00:57:49;15.52;;;10.57;;
3561;SDS011;1795;52.074;4.754;2022-11-20T01:00:17;13.77;;;10.57;;
3561;SDS011;1795;52.074;4.754;2022-11-20T01:02:45;15.05;;;10.73;;
3561;SDS011;1795;52.074;4.754;2022-11-20T01:05:14;12.50;;;10.00;;
3561;SDS011;1795;52.074;4.754;2022-11-20T01:07:43;14.13;;;9.63;;
3561;SDS011;1795;52.074;4.754;2022-11-20T01:10:12;13.80;;;10.63;;
3561;SDS011;1795;52.074;4.754;2022-11-20T01:12:40;13.68;;;10.52;;
3561;SDS011;1795;52.074;4.754;2022-11-20T01:15:08;13.73;;;10.05;;
3561;SDS011;1795;52.074;4.754;2022-11-20T01:17:37;14.02;;;10.40;;
3561;SDS011;1795;52.074;4.754;2022-11-20T01:20:05;12.75;;;9.18;;
3561;SDS011;1795;52.074;4.754;2022-11-20T01:22:34;14.50;;;10.30;;
3561;SDS011;1795;52.074;4.754;2022-11-20T01:25:04;13.73;;;9.98;;
3561;SDS011;1795;52.074;4.754;2022-11-20T01:27:32;14.75;;;10.70;;
3561;SDS011;1795;52.074;4.754;2022-11-20T01:30:01;14.63;;;9.90;;
3561;SDS011;1795;52.074;4.754;2022-11-20T01:32:29;15.38;;;10.38;;
3561;SDS011;1795;52.074;4.754;2022-11-20T01:34:57;14.90;;;10.27;;
3561;SDS011;1795;52.074;4.754;2022-11-20T01:37:25;14.00;;;10.30;;
3561;SDS011;1795;52.074;4.754;2022-11-20T01:39:54;13.43;;;9.95;;
3561;SDS011;1795;52.074;4.754;2022-11-20T01:42:23;13.65;;;9.90;;
3561;SDS011;1795;52.074;4.754;2022-11-20T01:47:56;12.38;;;9.90;;
3561;SDS011;1795;52.074;4.754;2022-11-20T01:50:25;14.18;;;10.23;;
3561;SDS011;1795;52.074;4.754;2022-11-20T01:52:55;12.63;;;9.70;;
3561;SDS011;1795;52.074;4.754;2022-11-20T01:55:25;13.87;;;10.23;;
3561;SDS011;1795;52.074;4.754;2022-11-20T01:57:57;15.90;;;10.70;;
3561;SDS011;1795;52.074;4.754;2022-11-20T02:00:26;12.93;;;10.30;;
3561;SDS011;1795;52.074;4.754;2022-11-20T02:02:56;13.23;;;10.07;;
3561;SDS011;1795;52.074;4.754;2022-11-20T02:05:27;14.23;;;10.10;;
3561;SDS011;1795;52.074;4.754;2022-11-20T02:07:56;13.90;;;10.05;;
3561;SDS011;1795;52.074;4.754;2022-11-20T02:10:26;14.70;;;11.00;;
3561;SDS011;1795;52.074;4.754;2022-11-20T02:12:55;12.38;;;9.50;;
3561;SDS011;1795;52.074;4.754;2022-11-20T02:15:42;14.95;;;10.98;;
3561;SDS011;1795;52.074;4.754;2022-11-20T02:18:11;13.02;;;10.13;;
3561;SDS011;1795;52.074;4.754;2022-11-20T02:20:40;13.48;;;10.43;;
3561;SDS011;1795;52.074;4.754;2022-11-20T02:23:10;16.97;;;11.30;;
3561;SDS011;1795;52.074;4.754;2022-11-20T02:25:41;14.47;;;10.90;;
3561;SDS011;1795;52.074;4.754;2022-11-20T02:28:10;15.95;;;10.23;;
3561;SDS011;1795;52.074;4.754;2022-11-20T02:30:38;15.35;;;10.00;;
3561;SDS011;1795;52.074;4.754;2022-11-20T02:33:06;13.65;;;10.27;;
3561;SDS011;1795;52.074;4.754;2022-11-20T02:35:42;15.02;;;11.23;;
3561;SDS011;1795;52.074;4.754;2022-11-20T02:38:11;13.48;;;9.85;;
3561;SDS011;1795;52.074;4.754;2022-11-20T02:40:39;15.10;;;11.43;;
3561;SDS011;1795;52.074;4.754;2022-11-20T02:43:09;14.52;;;10.45;;
3561;SDS011;1795;52.074;4.754;2022-11-20T02:45:38;15.63;;;10.68;;
3561;SDS011;1795;52.074;4.754;2022-11-20T02:48:06;15.07;;;10.57;;
3561;SDS011;1795;52.074;4.754;2022-11-20T02:50:36;14.88;;;11.00;;
3561;SDS011;1795;52.074;4.754;2022-11-20T02:53:05;15.40;;;11.20;;
3561;SDS011;1795;52.074;4.754;2022-11-20T02:55:33;14.77;;;10.40;;
3561;SDS011;1795;52.074;4.754;2022-11-20T02:58:02;16.40;;;10.77;;
3561;SDS011;1795;52.074;4.754;2022-11-20T03:00:32;15.80;;;11.60;;
3561;SDS011;1795;52.074;4.754;2022-11-20T03:03:01;13.52;;;10.57;;
3561;SDS011;1795;52.074;4.754;2022-11-20T03:05:29;14.27;;;10.18;;
3561;SDS011;1795;52.074;4.754;2022-11-20T03:07:58;13.75;;;10.50;;
3561;SDS011;1795;52.074;4.754;2022-11-20T03:10:26;15.07;;;10.87;;
3561;SDS011;1795;52.074;4.754;2022-11-20T03:12:54;15.32;;;10.65;;
3561;SDS011;1795;52.074;4.754;2022-11-20T03:15:23;14.73;;;10.48;;
3561;SDS011;1795;52.074;4.754;2022-11-20T03:17:54;13.50;;;10.50;;
3561;SDS011;1795;52.074;4.754;2022-11-20T03:20:22;13.13;;;10.23;;
3561;SDS011;1795;52.074;4.754;2022-11-20T03:22:52;13.90;;;10.40;;
3561;SDS011;1795;52.074;4.754;2022-11-20T03:25:21;13.13;;;10.68;;
3561;SDS011;1795;52.074;4.754;2022-11-20T03:27:50;14.32;;;10.57;;
3561;SDS011;1795;52.074;4.754;2022-11-20T03:30:18;12.68;;;9.77;;
3561;SDS011;1795;52.074;4.754;2022-11-20T03:32:53;14.27;;;10.73;;
3561;SDS011;1795;52.074;4.754;2022-11-20T03:35:22;14.15;;;10.15;;
3561;SDS011;1795;52.074;4.754;2022-11-20T03:37:50;17.92;;;10.45;;
3561;SDS011;1795;52.074;4.754;2022-11-20T03:40:19;14.50;;;10.30;;
3561;SDS011;1795;52.074;4.754;2022-11-20T03:42:47;14.20;;;9.75;;
3561;SDS011;1795;52.074;4.754;2022-11-20T03:45:16;14.55;;;10.82;;
3561;SDS011;1795;52.074;4.754;2022-11-20T03:47:45;14.60;;;11.50;;
3561;SDS011;1795;52.074;4.754;2022-11-20T03:50:15;13.63;;;10.90;;
3561;SDS011;1795;52.074;4.754;2022-11-20T03:52:43;15.63;;;10.80;;
3561;SDS011;1795;52.074;4.754;2022-11-20T03:55:11;13.05;;;9.88;;
3561;SDS011;1795;52.074;4.754;2022-11-20T03:57:39;16.98;;;11.18;;
3561;SDS011;1795;52.074;4.754;2022-11-20T04:00:08;14.52;;;10.40;;
3561;SDS011;1795;52.074;4.754;2022-11-20T04:02:37;13.88;;;10.48;;
3561;SDS011;1795;52.074;4.754;2022-11-20T04:05:05;13.02;;;10.52;;
3561;SDS011;1795;52.074;4.754;2022-11-20T04:07:35;13.40;;;10.00;;
3561;SDS011;1795;52.074;4.754;2022-11-20T04:10:04;16.20;;;11.02;;
3561;SDS011;1795;52.074;4.754;2022-11-20T04:12:32;15.23;;;10.90;;
3561;SDS011;1795;52.074;4.754;2022-11-20T04:15:00;14.98;;;10.52;;
3561;SDS011;1795;52.074;4.754;2022-11-20T04:17:29;13.38;;;10.13;;
3561;SDS011;1795;52.074;4.754;2022-11-20T04:19:57;15.60;;;10.77;;
3561;SDS011;1795;52.074;4.754;2022-11-20T04:22:25;15.48;;;11.02;;
3561;SDS011;1795;52.074;4.754;2022-11-20T04:24:55;14.00;;;10.50;;
3561;SDS011;1795;52.074;4.754;2022-11-20T04:27:23;14.63;;;10.23;;
3561;SDS011;1795;52.074;4.754;2022-11-20T04:29:52;14.38;;;10.45;;
3561;SDS011;1795;52.074;4.754;2022-11-20T04:32:20;15.65;;;11.40;;
3561;SDS011;1795;52.074;4.754;2022-11-20T04:34:48;13.88;;;10.30;;
3561;SDS011;1795;52.074;4.754;2022-11-20T04:37:16;14.38;;;10.73;;
3561;SDS011;1795;52.074;4.754;2022-11-20T04:39:44;14.55;;;10.45;;
3561;SDS011;1795;52.074;4.754;2022-11-20T04:42:14;15.55;;;10.98;;
3561;SDS011;1795;52.074;4.754;2022-11-20T04:44:57;14.70;;;10.90;;
3561;SDS011;1795;52.074;4.754;2022-11-20T04:47:26;14.70;;;10.90;;
3561;SDS011;1795;52.074;4.754;2022-11-20T04:49:54;14.88;;;11.32;;
3561;SDS011;1795;52.074;4.754;2022-11-20T04:52:22;13.65;;;10.15;;
3561;SDS011;1795;52.074;4.754;2022-11-20T04:54:51;14.25;;;10.35;;
3561;SDS011;1795;52.074;4.754;2022-11-20T04:57:21;14.35;;;10.48;;
3561;SDS011;1795;52.074;4.754;2022-11-20T04:59:49;16.38;;;11.35;;
3561;SDS011;1795;52.074;4.754;2022-11-20T05:02:18;14.52;;;10.23;;
3561;SDS011;1795;52.074;4.754;2022-11-20T05:04:46;15.38;;;11.02;;
3561;SDS011;1795;52.074;4.754;2022-11-20T05:07:14;14.90;;;10.90;;
3561;SDS011;1795;52.074;4.754;2022-11-20T05:09:43;14.05;;;10.43;;
3561;SDS011;1795;52.074;4.754;2022-11-20T05:12:11;14.98;;;11.05;;
3561;SDS011;1795;52.074;4.754;2022-11-20T05:14:41;14.30;;;10.07;;
3561;SDS011;1795;52.074;4.754;2022-11-20T05:17:09;14.85;;;10.70;;
3561;SDS011;1795;52.074;4.754;2022-11-20T05:19:38;14.50;;;10.43;;
3561;SDS011;1795;52.074;4.754;2022-11-20T05:22:06;16.02;;;11.35;;
3561;SDS011;1795;52.074;4.754;2022-11-20T05:24:34;15.10;;;11.30;;
3561;SDS011;1795;52.074;4.754;2022-11-20T05:27:03;13.93;;;10.10;;
3561;SDS011;1795;52.074;4.754;2022-11-20T05:29:31;14.55;;;10.90;;
3561;SDS011;1795;52.074;4.754;2022-11-20T05:32:01;14.68;;;10.82;;
3561;SDS011;1795;52.074;4.754;2022-11-20T05:34:29;16.08;;;10.80;;
3561;SDS011;1795;52.074;4.754;2022-11-20T05:36:57;16.67;;;11.60;;
3561;SDS011;1795;52.074;4.754;2022-11-20T05:39:25;16.20;;;11.57;;
3561;SDS011;1795;52.074;4.754;2022-11-20T05:41:54;15.32;;;10.93;;
3561;SDS011;1795;52.074;4.754;2022-11-20T05:44:36;14.60;;;10.80;;
3561;SDS011;1795;52.074;4.754;2022-11-20T05:47:05;15.90;;;11.65;;
3561;SDS011;1795;52.074;4.754;2022-11-20T05:49:34;16.33;;;10.80;;
3561;SDS011;1795;52.074;4.754;2022-11-20T05:52:02;15.07;;;10.57;;
3561;SDS011;1795;52.074;4.754;2022-11-20T05:54:31;14.23;;;10.30;;
3561;SDS011;1795;52.074;4.754;2022-11-20T05:56:59;16.02;;;11.13;;
3561;SDS011;1795;52.074;4.754;2022-11-20T05:59:27;13.57;;;10.30;;
3561;SDS011;1795;52.074;4.754;2022-11-20T06:01:56;15.30;;;10.68;;
3561;SDS011;1795;52.074;4.754;2022-11-20T06:04:25;15.00;;;10.98;;
3561;SDS011;1795;52.074;4.754;2022-11-20T06:06:54;14.32;;;10.40;;
3561;SDS011;1795;52.074;4.754;2022-11-20T06:09:22;15.70;;;11.40;;
3561;SDS011;1795;52.074;4.754;2022-11-20T06:11:50;14.80;;;10.20;;
3561;SDS011;1795;52.074;4.754;2022-11-20T06:14:19;16.20;;;11.20;;
3561;SDS011;1795;52.074;4.754;2022-11-20T06:16:47;14.93;;;11.10;;
3561;SDS011;1795;52.074;4.754;2022-11-20T06:19:15;16.35;;;11.35;;
3561;SDS011;1795;52.074;4.754;2022-11-20T06:21:45;16.67;;;10.90;;
3561;SDS011;1795;52.074;4.754;2022-11-20T06:24:15;15.85;;;11.38;;
3561;SDS011;1795;52.074;4.754;2022-11-20T06:26:43;17.23;;;11.02;;
3561;SDS011;1795;52.074;4.754;2022-11-20T06:29:12;15.68;;;11.00;;
3561;SDS011;1795;52.074;4.754;2022-11-20T06:31:40;16.10;;;11.63;;
3561;SDS011;1795;52.074;4.754;2022-11-20T06:34:08;16.33;;;11.30;;
3561;SDS011;1795;52.074;4.754;2022-11-20T06:36:37;16.80;;;12.03;;
3561;SDS011;1795;52.074;4.754;2022-11-20T06:39:06;15.73;;;11.65;;
3561;SDS011;1795;52.074;4.754;2022-11-20T06:41:35;15.10;;;11.38;;
3561;SDS011;1795;52.074;4.754;2022-11-20T06:44:03;15.93;;;11.40;;
3561;SDS011;1795;52.074;4.754;2022-11-20T06:46:32;18.00;;;11.98;;
3561;SDS011;1795;52.074;4.754;2022-11-20T06:49:00;14.88;;;11.02;;
3561;SDS011;1795;52.074;4.754;2022-11-20T06:51:28;18.17;;;12.10;;
3561;SDS011;1795;52.074;4.754;2022-11-20T06:53:57;16.50;;;11.65;;
3561;SDS011;1795;52.074;4.754;2022-11-20T06:56:28;17.38;;;11.25;;
3561;SDS011;1795;52.074;4.754;2022-11-20T06:58:56;15.95;;;11.45;;
3561;SDS011;1795;52.074;4.754;2022-11-20T07:01:24;15.98;;;11.45;;
3561;SDS011;1795;52.074;4.754;2022-11-20T07:03:53;13.80;;;11.20;;
3561;SDS011;1795;52.074;4.754;2022-11-20T07:06:21;15.45;;;11.30;;
3561;SDS011;1795;52.074;4.754;2022-11-20T07:08:50;15.10;;;11.20;;
3561;SDS011;1795;52.074;4.754;2022-11-20T07:11:19;16.48;;;11.38;;
3561;SDS011;1795;52.074;4.754;2022-11-20T07:13:49;16.33;;;11.70;;
3561;SDS011;1795;52.074;4.754;2022-11-20T07:16:17;15.60;;;11.32;;
3561;SDS011;1795;52.074;4.754;2022-11-20T07:18:45;17.85;;;12.07;;
3561;SDS011;1795;52.074;4.754;2022-11-20T07:21:16;16.65;;;11.80;;
3561;SDS011;1795;52.074;4.754;2022-11-20T07:23:44;15.52;;;11.40;;
3561;SDS011;1795;52.074;4.754;2022-11-20T07:26:12;14.63;;;11.20;;
3561;SDS011;1795;52.074;4.754;2022-11-20T07:28:43;16.75;;;12.20;;
3561;SDS011;1795;52.074;4.754;2022-11-20T07:31:13;17.30;;;11.40;;
3561;SDS011;1795;52.074;4.754;2022-11-20T07:33:45;17.40;;;12.03;;
3561;SDS011;1795;52.074;4.754;2022-11-20T07:36:13;16.92;;;12.00;;
3561;SDS011;1795;52.074;4.754;2022-11-20T07:38:41;16.98;;;11.50;;
3561;SDS011;1795;52.074;4.754;2022-11-20T07:41:10;16.13;;;11.60;;
3561;SDS011;1795;52.074;4.754;2022-11-20T07:43:38;17.60;;;11.77;;
3561;SDS011;1795;52.074;4.754;2022-11-20T07:46:07;15.68;;;11.50;;
3561;SDS011;1795;52.074;4.754;2022-11-20T07:48:36;16.90;;;12.07;;
3561;SDS011;1795;52.074;4.754;2022-11-20T07:51:05;17.73;;;12.75;;
3561;SDS011;1795;52.074;4.754;2022-11-20T07:53:33;15.75;;;11.68;;
3561;SDS011;1795;52.074;4.754;2022-11-20T07:56:01;17.67;;;13.10;;
3561;SDS011;1795;52.074;4.754;2022-11-20T07:58:30;17.60;;;12.43;;
3561;SDS011;1795;52.074;4.754;2022-11-20T08:01:03;17.23;;;12.52;;
3561;SDS011;1795;52.074;4.754;2022-11-20T08:03:32;19.47;;;13.70;;
3561;SDS011;1795;52.074;4.754;2022-11-20T08:06:01;18.70;;;12.75;;
3561;SDS011;1795;52.074;4.754;2022-11-20T08:08:30;17.92;;;13.40;;
3561;SDS011;1795;52.074;4.754;2022-11-20T08:11:00;17.02;;;13.00;;
3561;SDS011;1795;52.074;4.754;2022-11-20T08:13:42;18.38;;;12.95;;
3561;SDS011;1795;52.074;4.754;2022-11-20T08:16:28;16.58;;;12.40;;
3561;SDS011;1795;52.074;4.754;2022-11-20T08:18:56;17.80;;;12.88;;
3561;SDS011;1795;52.074;4.754;2022-11-20T08:21:26;19.40;;;13.23;;
3561;SDS011;1795;52.074;4.754;2022-11-20T08:24:00;19.58;;;13.80;;
3561;SDS011;1795;52.074;4.754;2022-11-20T08:26:28;18.65;;;13.10;;
3561;SDS011;1795;52.074;4.754;2022-11-20T08:28:57;21.23;;;13.60;;
3561;SDS011;1795;52.074;4.754;2022-11-20T08:31:26;17.02;;;12.90;;
3561;SDS011;1795;52.074;4.754;2022-11-20T08:33:54;19.77;;;13.80;;
3561;SDS011;1795;52.074;4.754;2022-11-20T08:36:23;19.92;;;13.80;;
3561;SDS011;1795;52.074;4.754;2022-11-20T08:38:53;18.15;;;13.25;;
3561;SDS011;1795;52.074;4.754;2022-11-20T08:41:22;20.63;;;13.13;;
3561;SDS011;1795;52.074;4.754;2022-11-20T08:43:52;19.98;;;14.02;;
3561;SDS011;1795;52.074;4.754;2022-11-20T08:46:20;18.85;;;13.20;;
3561;SDS011;1795;52.074;4.754;2022-11-20T08:48:48;18.75;;;14.20;;
3561;SDS011;1795;52.074;4.754;2022-11-20T08:51:17;18.88;;;13.38;;
3561;SDS011;1795;52.074;4.754;2022-11-20T08:53:45;19.13;;;13.60;;
3561;SDS011;1795;52.074;4.754;2022-11-20T08:56:17;18.95;;;13.45;;
3561;SDS011;1795;52.074;4.754;2022-11-20T08:58:45;21.08;;;14.90;;
3561;SDS011;1795;52.074;4.754;2022-11-20T09:01:33;20.13;;;14.60;;
3561;SDS011;1795;52.074;4.754;2022-11-20T09:04:02;20.33;;;14.43;;
3561;SDS011;1795;52.074;4.754;2022-11-20T09:06:30;19.45;;;14.43;;
3561;SDS011;1795;52.074;4.754;2022-11-20T09:08:59;21.10;;;14.85;;
3561;SDS011;1795;52.074;4.754;2022-11-20T09:11:33;19.95;;;15.10;;
3561;SDS011;1795;52.074;4.754;2022-11-20T09:14:02;19.50;;;14.10;;
3561;SDS011;1795;52.074;4.754;2022-11-20T09:16:30;19.83;;;14.15;;
3561;SDS011;1795;52.074;4.754;2022-11-20T09:18:59;22.10;;;13.90;;
3561;SDS011;1795;52.074;4.754;2022-11-20T09:21:47;21.05;;;14.07;;
3561;SDS011;1795;52.074;4.754;2022-11-20T09:24:15;19.92;;;14.40;;
3561;SDS011;1795;52.074;4.754;2022-11-20T09:26:45;21.80;;;15.32;;
3561;SDS011;1795;52.074;4.754;2022-11-20T09:29:14;22.02;;;14.50;;
3561;SDS011;1795;52.074;4.754;2022-11-20T09:31:42;20.83;;;15.67;;
3561;SDS011;1795;52.074;4.754;2022-11-20T09:34:10;20.70;;;14.05;;
3561;SDS011;1795;52.074;4.754;2022-11-20T09:36:38;22.48;;;15.88;;
3561;SDS011;1795;52.074;4.754;2022-11-20T09:39:07;23.27;;;15.38;;
3561;SDS011;1795;52.074;4.754;2022-11-20T09:41:39;21.13;;;15.10;;
3561;SDS011;1795;52.074;4.754;2022-11-20T09:44:17;20.55;;;15.25;;
3561;SDS011;1795;52.074;4.754;2022-11-20T09:46:47;18.98;;;14.00;;
3561;SDS011;1795;52.074;4.754;2022-11-20T09:49:22;21.02;;;15.23;;
3561;SDS011;1795;52.074;4.754;2022-11-20T09:51:57;21.05;;;15.68;;
3561;SDS011;1795;52.074;4.754;2022-11-20T09:54:27;22.85;;;14.82;;
3561;SDS011;1795;52.074;4.754;2022-11-20T09:56:58;21.15;;;15.30;;
3561;SDS011;1795;52.074;4.754;2022-11-20T09:59:31;22.30;;;15.88;;
3561;SDS011;1795;52.074;4.754;2022-11-20T10:02:01;21.30;;;14.73;;
3561;SDS011;1795;52.074;4.754;2022-11-20T10:04:30;21.02;;;15.60;;
3561;SDS011;1795;52.074;4.754;2022-11-20T10:07:06;20.65;;;15.05;;
3561;SDS011;1795;52.074;4.754;2022-11-20T10:09:57;21.08;;;16.70;;
3561;SDS011;1795;52.074;4.754;2022-11-20T10:12:27;20.95;;;16.08;;
3561;SDS011;1795;52.074;4.754;2022-11-20T10:15:03;22.90;;;16.20;;
3561;SDS011;1795;52.074;4.754;2022-11-20T10:17:44;24.67;;;16.00;;
3561;SDS011;1795;52.074;4.754;2022-11-20T10:20:19;23.70;;;16.05;;
3561;SDS011;1795;52.074;4.754;2022-11-20T10:22:56;22.10;;;16.37;;
3561;SDS011;1795;52.074;4.754;2022-11-20T10:25:29;23.55;;;16.95;;
3561;SDS011;1795;52.074;4.754;2022-11-20T10:28:06;23.60;;;16.58;;
3561;SDS011;1795;52.074;4.754;2022-11-20T10:30:40;23.40;;;16.40;;
3561;SDS011;1795;52.074;4.754;2022-11-20T10:33:12;27.20;;;18.20;;
3561;SDS011;1795;52.074;4.754;2022-11-20T10:35:42;22.80;;;16.35;;
3561;SDS011;1795;52.074;4.754;2022-11-20T10:38:14;22.02;;;16.95;;
3561;SDS011;1795;52.074;4.754;2022-11-20T10:40:44;26.77;;;18.00;;
3561;SDS011;1795;52.074;4.754;2022-11-20T10:43:15;27.08;;;18.10;;
3561;SDS011;1795;52.074;4.754;2022-11-20T10:45:47;23.77;;;17.05;;
3561;SDS011;1795;52.074;4.754;2022-11-20T10:48:20;22.23;;;16.48;;
3561;SDS011;1795;52.074;4.754;2022-11-20T10:51:00;26.67;;;17.95;;
3561;SDS011;1795;52.074;4.754;2022-11-20T10:53:38;25.15;;;17.65;;
3561;SDS011;1795;52.074;4.754;2022-11-20T10:56:10;27.13;;;19.50;;
3561;SDS011;1795;52.074;4.754;2022-11-20T10:58:41;25.85;;;17.30;;
3561;SDS011;1795;52.074;4.754;2022-11-20T11:01:15;24.17;;;17.35;;
3561;SDS011;1795;52.074;4.754;2022-11-20T11:03:44;25.77;;;18.02;;
3561;SDS011;1795;52.074;4.754;2022-11-20T11:06:14;28.00;;;19.33;;
3561;SDS011;1795;52.074;4.754;2022-11-20T11:08:45;26.97;;;18.57;;
3561;SDS011;1795;52.074;4.754;2022-11-20T11:11:18;28.80;;;19.52;;
3561;SDS011;1795;52.074;4.754;2022-11-20T11:13:48;26.48;;;18.75;;
3561;SDS011;1795;52.074;4.754;2022-11-20T11:16:22;26.33;;;18.52;;
3561;SDS011;1795;52.074;4.754;2022-11-20T11:18:50;27.15;;;18.75;;
3561;SDS011;1795;52.074;4.754;2022-11-20T11:21:22;27.55;;;19.67;;
3561;SDS011;1795;52.074;4.754;2022-11-20T11:23:58;29.30;;;18.98;;
3561;SDS011;1795;52.074;4.754;2022-11-20T11:26:51;29.60;;;19.73;;
3561;SDS011;1795;52.074;4.754;2022-11-20T11:29:19;27.25;;;19.13;;
3561;SDS011;1795;52.074;4.754;2022-11-20T11:31:49;27.35;;;19.00;;
3561;SDS011;1795;52.074;4.754;2022-11-20T11:34:18;27.83;;;19.88;;
3561;SDS011;1795;52.074;4.754;2022-11-20T11:36:49;27.55;;;19.90;;
3561;SDS011;1795;52.074;4.754;2022-11-20T11:39:20;28.67;;;19.98;;
3561;SDS011;1795;52.074;4.754;2022-11-20T11:41:49;29.58;;;20.52;;
3561;SDS011;1795;52.074;4.754;2022-11-20T11:44:18;29.38;;;19.98;;
3561;SDS011;1795;52.074;4.754;2022-11-20T11:47:08;33.85;;;21.80;;
3561;SDS011;1795;52.074;4.754;2022-11-20T11:49:37;33.95;;;22.48;;
3561;SDS011;1795;52.074;4.754;2022-11-20T11:52:08;32.10;;;21.23;;
3561;SDS011;1795;52.074;4.754;2022-11-20T11:54:41;34.58;;;22.95;;
3561;SDS011;1795;52.074;4.754;2022-11-20T11:57:12;32.33;;;20.98;;
3561;SDS011;1795;52.074;4.754;2022-11-20T11:59:46;31.75;;;22.40;;
3561;SDS011;1795;52.074;4.754;2022-11-20T12:02:24;34.72;;;22.67;;
3561;SDS011;1795;52.074;4.754;2022-11-20T12:04:54;32.67;;;21.08;;
3561;SDS011;1795;52.074;4.754;2022-11-20T12:07:29;34.40;;;21.90;;
3561;SDS011;1795;52.074;4.754;2022-11-20T12:10:18;35.43;;;21.80;;
3561;SDS011;1795;52.074;4.754;2022-11-20T12:12:49;39.60;;;22.30;;
3561;SDS011;1795;52.074;4.754;2022-11-20T12:15:22;36.55;;;22.00;;
3561;SDS011;1795;52.074;4.754;2022-11-20T12:17:54;31.35;;;21.45;;
3561;SDS011;1795;52.074;4.754;2022-11-20T12:20:24;38.00;;;23.30;;
3561;SDS011;1795;52.074;4.754;2022-11-20T12:22:55;35.65;;;22.38;;
3561;SDS011;1795;52.074;4.754;2022-11-20T12:25:24;36.75;;;22.00;;
3561;SDS011;1795;52.074;4.754;2022-11-20T12:30:38;32.95;;;21.88;;
3561;SDS011;1795;52.074;4.754;2022-11-20T12:33:15;36.70;;;23.15;;
3561;SDS011;1795;52.074;4.754;2022-11-20T12:35:52;34.15;;;21.50;;
3561;SDS011;1795;52.074;4.754;2022-11-20T12:41:10;31.95;;;21.42;;
3561;SDS011;1795;52.074;4.754;2022-11-20T12:43:42;37.80;;;22.70;;
3561;SDS011;1795;52.074;4.754;2022-11-20T12:46:31;37.05;;;22.45;;
3561;SDS011;1795;52.074;4.754;2022-11-20T12:49:15;33.85;;;21.23;;
3561;SDS011;1795;52.074;4.754;2022-11-20T12:51:57;34.65;;;21.95;;
3561;SDS011;1795;52.074;4.754;2022-11-20T12:54:39;34.45;;;22.70;;
3561;SDS011;1795;52.074;4.754;2022-11-20T12:57:14;33.03;;;20.50;;
3561;SDS011;1795;52.074;4.754;2022-11-20T12:59:51;34.30;;;22.03;;
3561;SDS011;1795;52.074;4.754;2022-11-20T13:02:24;37.58;;;22.42;;
3561;SDS011;1795;52.074;4.754;2022-11-20T13:05:08;35.47;;;21.92;;
3561;SDS011;1795;52.074;4.754;2022-11-20T13:07:41;35.70;;;22.35;;
3561;SDS011;1795;52.074;4.754;2022-11-20T13:10:13;37.93;;;22.53;;
3561;SDS011;1795;52.074;4.754;2022-11-20T13:12:44;37.92;;;21.80;;
3561;SDS011;1795;52.074;4.754;2022-11-20T13:15:17;36.05;;;22.08;;
3561;SDS011;1795;52.074;4.754;2022-11-20T13:17:47;38.45;;;22.67;;
3561;SDS011;1795;52.074;4.754;2022-11-20T13:20:19;34.42;;;21.60;;
3561;SDS011;1795;52.074;4.754;2022-11-20T13:22:48;35.92;;;21.95;;
3561;SDS011;1795;52.074;4.754;2022-11-20T13:25:23;36.47;;;21.25;;
3561;SDS011;1795;52.074;4.754;2022-11-20T13:27:52;41.67;;;24.20;;
3561;SDS011;1795;52.074;4.754;2022-11-20T13:30:22;37.17;;;21.47;;
3561;SDS011;1795;52.074;4.754;2022-11-20T13:32:51;38.28;;;22.83;;
3561;SDS011;1795;52.074;4.754;2022-11-20T13:35:25;39.92;;;23.08;;
3561;SDS011;1795;52.074;4.754;2022-11-20T13:38:05;40.33;;;22.83;;
3561;SDS011;1795;52.074;4.754;2022-11-20T13:40:34;41.15;;;22.80;;
3561;SDS011;1795;52.074;4.754;2022-11-20T13:43:19;40.83;;;23.10;;
3561;SDS011;1795;52.074;4.754;2022-11-20T13:45:54;39.90;;;23.33;;
3561;SDS011;1795;52.074;4.754;2022-11-20T13:48:24;40.78;;;22.83;;
3561;SDS011;1795;52.074;4.754;2022-11-20T13:50:56;40.60;;;22.40;;
3561;SDS011;1795;52.074;4.754;2022-11-20T13:53:32;43.65;;;24.48;;
3561;SDS011;1795;52.074;4.754;2022-11-20T13:56:04;47.73;;;24.07;;
3561;SDS011;1795;52.074;4.754;2022-11-20T13:58:36;47.72;;;25.30;;
3561;SDS011;1795;52.074;4.754;2022-11-20T14:01:09;42.95;;;24.58;;
3561;SDS011;1795;52.074;4.754;2022-11-20T14:03:38;43.70;;;24.60;;
3561;SDS011;1795;52.074;4.754;2022-11-20T14:06:28;47.97;;;24.83;;
3561;SDS011;1795;52.074;4.754;2022-11-20T14:08:57;43.93;;;24.63;;
3561;SDS011;1795;52.074;4.754;2022-11-20T14:11:27;44.13;;;25.15;;
3561;SDS011;1795;52.074;4.754;2022-11-20T14:13:57;44.65;;;25.05;;
3561;SDS011;1795;52.074;4.754;2022-11-20T14:16:26;47.33;;;25.60;;
3561;SDS011;1795;52.074;4.754;2022-11-20T14:18:55;46.17;;;26.37;;
3561;SDS011;1795;52.074;4.754;2022-11-20T14:21:25;41.55;;;24.63;;
3561;SDS011;1795;52.074;4.754;2022-11-20T14:24:02;45.72;;;25.70;;
3561;SDS011;1795;52.074;4.754;2022-11-20T14:26:30;48.93;;;25.63;;
3561;SDS011;1795;52.074;4.754;2022-11-20T14:28:59;46.50;;;26.58;;
3561;SDS011;1795;52.074;4.754;2022-11-20T14:31:28;45.22;;;26.55;;
3561;SDS011;1795;52.074;4.754;2022-11-20T14:33:56;51.87;;;29.00;;
3561;SDS011;1795;52.074;4.754;2022-11-20T14:36:24;46.00;;;27.75;;
3561;SDS011;1795;52.074;4.754;2022-11-20T14:38:55;54.53;;;30.00;;
3561;SDS011;1795;52.074;4.754;2022-11-20T14:41:23;51.83;;;28.50;;
3561;SDS011;1795;52.074;4.754;2022-11-20T14:43:53;50.50;;;26.98;;
3561;SDS011;1795;52.074;4.754;2022-11-20T14:46:22;52.88;;;28.15;;
3561;SDS011;1795;52.074;4.754;2022-11-20T14:48:51;51.67;;;27.57;;
3561;SDS011;1795;52.074;4.754;2022-11-20T14:51:29;46.10;;;26.20;;
3561;SDS011;1795;52.074;4.754;2022-11-20T14:54:09;52.55;;;28.73;;
3561;SDS011;1795;52.074;4.754;2022-11-20T14:56:37;49.10;;;27.55;;
3561;SDS011;1795;52.074;4.754;2022-11-20T14:59:05;48.57;;;28.47;;
3561;SDS011;1795;52.074;4.754;2022-11-20T15:01:34;47.50;;;26.77;;
3561;SDS011;1795;52.074;4.754;2022-11-20T15:04:05;45.42;;;27.35;;
3561;SDS011;1795;52.074;4.754;2022-11-20T15:06:34;43.95;;;26.45;;
3561;SDS011;1795;52.074;4.754;2022-11-20T15:09:02;45.67;;;27.20;;
3561;SDS011;1795;52.074;4.754;2022-11-20T15:11:33;47.78;;;28.13;;
3561;SDS011;1795;52.074;4.754;2022-11-20T15:14:03;47.83;;;27.40;;
3561;SDS011;1795;52.074;4.754;2022-11-20T15:16:32;48.47;;;27.73;;